Time;durP1;ratioP1;P1;durP2;ratioP2;P2;SDS_P1;SDS_P2;PMS_P1;PMS_P2;Temp;Humidity;BMP_temperature;BMP_pressure;BME280_temperature;BME280_humidity;BME280_pressure;Samples;Min_cycle;Max_cycle;Signal;HPM_P1;HPM_P2
2022/04/23 00:01:28;;;;;;;24.83;20.53;;;9.40;99.90;;;;;;5069189;28;20573;-66
2022/04/23 00:03:55;;;;;;;21.57;19.37;;;9.50;99.90;;;;;;5072666;28;20471;-65
2022/04/23 00:06:21;;;;;;;23.97;21.40;;;9.50;99.90;;;;;;5072550;28;20875;-66
2022/04/23 00:08:50;;;;;;;21.90;19.70;;;9.50;99.90;;;;;;5072632;28;20538;-66
2022/04/23 00:11:17;;;;;;;23.10;20.70;;;9.50;99.90;;;;;;5072773;28;20439;-66
2022/04/23 00:13:44;;;;;;;21.47;19.23;;;9.50;99.90;;;;;;5072339;28;20467;-66
2022/04/23 00:16:14;;;;;;;20.93;18.83;;;9.50;99.90;;;;;;5072308;28;20457;-65
2022/04/23 00:18:42;;;;;;;20.00;17.83;;;9.50;99.90;;;;;;5072520;28;20458;-65
2022/04/23 00:21:09;;;;;;;21.90;19.13;;;9.60;99.90;;;;;;5072570;28;20454;-66
2022/04/23 00:23:36;;;;;;;23.70;19.47;;;9.60;99.90;;;;;;5072469;28;20463;-66
2022/04/23 00:26:04;;;;;;;20.10;18.10;;;9.60;99.90;;;;;;5072344;28;20888;-65
2022/04/23 00:28:31;;;;;;;19.93;17.97;;;9.60;99.90;;;;;;5072412;28;20471;-65
2022/04/23 00:30:58;;;;;;;18.47;16.50;;;9.70;99.90;;;;;;5072351;28;20446;-65
2022/04/23 00:33:25;;;;;;;19.23;17.33;;;9.70;99.90;;;;;;5072183;28;20470;-66
2022/04/23 00:35:52;;;;;;;19.93;17.87;;;9.70;99.90;;;;;;5071993;28;20458;-67
2022/04/23 00:38:18;;;;;;;20.80;18.63;;;9.70;99.90;;;;;;5072339;28;20538;-66
2022/04/23 00:40:46;;;;;;;19.20;17.17;;;9.80;99.90;;;;;;5072003;28;20939;-65
2022/04/23 00:43:26;;;;;;;18.50;16.67;;;9.80;99.90;;;;;;5072008;28;20485;-65
2022/04/23 00:45:53;;;;;;;19.67;17.50;;;9.70;99.90;;;;;;5071738;28;20573;-65
2022/04/23 00:48:21;;;;;;;19.63;17.70;;;9.70;99.90;;;;;;5072010;28;20447;-66
2022/04/23 00:50:49;;;;;;;19.20;17.20;;;9.70;99.90;;;;;;5072060;28;20451;-66
2022/04/23 00:53:17;;;;;;;21.13;18.70;;;9.70;99.90;;;;;;5071638;28;20925;-67
2022/04/23 00:55:44;;;;;;;20.10;17.87;;;9.60;99.90;;;;;;5071426;28;20984;-66
2022/04/23 00:58:11;;;;;;;18.87;16.87;;;9.60;99.90;;;;;;5071853;28;20439;-65
2022/04/23 01:00:41;;;;;;;19.37;17.33;;;9.50;99.90;;;;;;5071830;28;20443;-65
2022/04/23 01:03:07;;;;;;;19.97;17.83;;;9.50;99.90;;;;;;5071644;28;20486;-65
2022/04/23 01:05:34;;;;;;;18.60;16.70;;;9.50;99.90;;;;;;5071255;28;20462;-66
2022/04/23 01:08:02;;;;;;;20.20;17.40;;;9.40;99.90;;;;;;5071502;28;20824;-65
2022/04/23 01:10:29;;;;;;;20.57;18.47;;;9.30;99.90;;;;;;5071607;28;20447;-65
2022/04/23 01:12:56;;;;;;;19.00;17.10;;;9.20;99.90;;;;;;5071602;28;20436;-65
2022/04/23 01:15:23;;;;;;;19.47;17.47;;;9.20;99.90;;;;;;5070311;28;20467;-66
2022/04/23 01:17:51;;;;;;;18.40;16.60;;;9.00;99.90;;;;;;5071611;28;20522;-65
2022/04/23 01:20:20;;;;;;;18.20;16.10;;;9.00;99.90;;;;;;5071371;28;20453;-65
2022/04/23 01:22:47;;;;;;;20.37;18.17;;;8.90;99.90;;;;;;5071480;28;20482;-66
2022/04/23 01:25:15;;;;;;;19.53;16.70;;;8.90;99.90;;;;;;5071017;28;20550;-65
2022/04/23 01:27:45;;;;;;;18.67;16.80;;;8.90;99.90;;;;;;5071390;28;20461;-65
2022/04/23 01:30:12;;;;;;;19.17;17.17;;;8.90;99.90;;;;;;5071159;28;20446;-65
2022/04/23 01:32:39;;;;;;;20.27;16.40;;;8.90;99.90;;;;;;5071032;28;21234;-65
2022/04/23 01:35:07;;;;;;;17.73;15.83;;;9.00;99.90;;;;;;5071056;28;20463;-65
2022/04/23 01:37:35;;;;;;;18.07;16.20;;;9.00;99.90;;;;;;5071476;28;20509;-65
2022/04/23 01:40:03;;;;;;;18.47;16.40;;;9.00;99.90;;;;;;5071303;28;20443;-66
2022/04/23 01:42:30;;;;;;;19.33;16.87;;;9.10;99.90;;;;;;5071038;28;20614;-66
2022/04/23 01:44:57;;;;;;;18.17;16.27;;;9.00;99.90;;;;;;5070613;28;20469;-65
2022/04/23 01:47:23;;;;;;;17.57;15.77;;;9.00;99.90;;;;;;5070755;28;20447;-65
2022/04/23 01:49:50;;;;;;;18.47;15.80;;;9.00;99.90;;;;;;5071016;28;20443;-66
2022/04/23 01:52:17;;;;;;;18.60;16.10;;;8.90;99.90;;;;;;5070772;28;20964;-66
2022/04/23 01:54:45;;;;;;;17.67;15.50;;;8.90;99.90;;;;;;5070198;28;20502;-66
2022/04/23 01:57:12;;;;;;;17.00;14.97;;;8.80;99.90;;;;;;5070837;28;20966;-65
2022/04/23 01:59:39;;;;;;;17.27;15.47;;;8.70;99.90;;;;;;5070688;28;20534;-66
2022/04/23 02:02:06;;;;;;;16.33;14.50;;;8.70;99.90;;;;;;5070436;28;20489;-66
2022/04/23 02:04:33;;;;;;;17.20;15.40;;;8.60;99.90;;;;;;5070195;28;20459;-65
2022/04/23 02:07:00;;;;;;;16.27;14.57;;;8.50;99.90;;;;;;5070553;28;20447;-66
2022/04/23 02:09:27;;;;;;;18.00;16.10;;;8.50;99.90;;;;;;5070878;28;20447;-66
2022/04/23 02:11:56;;;;;;;17.20;15.30;;;8.40;99.90;;;;;;5070255;28;20949;-65
2022/04/23 02:14:23;;;;;;;16.33;14.60;;;8.30;99.90;;;;;;5069810;28;20478;-65
2022/04/23 02:16:50;;;;;;;16.43;14.63;;;8.30;99.90;;;;;;5070121;28;20443;-66
2022/04/23 02:19:17;;;;;;;17.30;15.50;;;8.30;99.90;;;;;;5070147;28;20542;-66
2022/04/23 02:21:44;;;;;;;15.83;14.17;;;8.20;99.90;;;;;;5069991;28;20465;-66
2022/04/23 02:24:11;;;;;;;17.10;14.27;;;8.20;99.90;;;;;;5069751;28;20520;-66
2022/04/23 02:26:38;;;;;;;18.33;16.40;;;8.20;99.90;;;;;;5069887;28;20530;-65
2022/04/23 02:29:06;;;;;;;17.10;15.30;;;8.10;99.90;;;;;;5069908;28;20447;-65
2022/04/23 02:31:33;;;;;;;17.63;15.27;;;8.10;99.90;;;;;;5069900;28;20451;-65
2022/04/23 02:34:00;;;;;;;17.53;14.30;;;8.10;99.90;;;;;;5069917;28;20469;-65
2022/04/23 02:36:26;;;;;;;16.30;14.60;;;8.10;99.90;;;;;;5069642;28;20818;-65
2022/04/23 02:38:53;;;;;;;19.17;16.77;;;8.10;99.90;;;;;;5070028;28;20442;-65
2022/04/23 02:41:20;;;;;;;15.97;14.37;;;8.20;99.90;;;;;;5069949;28;20612;-65
2022/04/23 02:43:47;;;;;;;16.73;14.83;;;8.20;99.90;;;;;;5069426;28;20478;-65
2022/04/23 02:46:15;;;;;;;15.80;13.60;;;8.20;99.90;;;;;;5069687;28;20454;-65
2022/04/23 02:48:44;;;;;;;16.97;15.13;;;8.20;99.90;;;;;;5069839;28;20450;-65
2022/04/23 02:51:15;;;;;;;17.13;15.17;;;8.20;99.90;;;;;;5069835;28;20455;-65
2022/04/23 02:53:42;;;;;;;16.03;14.33;;;8.30;99.90;;;;;;5069744;28;20459;-65
2022/04/23 02:56:13;;;;;;;15.97;14.33;;;8.30;99.90;;;;;;5069399;28;20457;-65
2022/04/23 02:58:40;;;;;;;15.90;14.10;;;8.40;99.90;;;;;;5069992;28;20443;-65
2022/04/23 03:01:10;;;;;;;16.70;15.10;;;8.40;99.90;;;;;;5069713;28;20538;-65
2022/04/23 03:03:39;;;;;;;17.03;15.37;;;8.40;99.90;;;;;;5069532;28;20479;-65
2022/04/23 03:06:07;;;;;;;16.83;14.97;;;8.30;99.90;;;;;;5069381;28;20487;-65
2022/04/23 03:08:35;;;;;;;16.27;14.67;;;8.30;99.90;;;;;;5069722;28;20481;-65
2022/04/23 03:11:02;;;;;;;17.90;16.10;;;8.30;99.90;;;;;;5069863;28;20451;-66
2022/04/23 03:13:29;;;;;;;16.97;15.13;;;8.20;99.90;;;;;;5069421;28;20850;-65
2022/04/23 03:15:56;;;;;;;15.23;13.73;;;8.20;99.90;;;;;;5069331;28;20453;-65
2022/04/23 03:18:23;;;;;;;16.00;14.30;;;8.20;99.90;;;;;;5069753;28;20443;-65
2022/04/23 03:20:51;;;;;;;17.20;15.50;;;8.20;99.90;;;;;;5069330;28;20457;-65
2022/04/23 03:23:18;;;;;;;17.00;15.20;;;8.10;99.90;;;;;;5069218;28;20478;-65
2022/04/23 03:25:45;;;;;;;19.20;15.10;;;8.10;99.90;;;;;;5069377;28;20500;-66
2022/04/23 03:28:13;;;;;;;16.00;14.23;;;8.10;99.90;;;;;;5069261;28;20972;-65
2022/04/23 03:30:40;;;;;;;14.83;13.23;;;8.10;99.90;;;;;;5069629;28;20539;-65
2022/04/23 03:33:08;;;;;;;16.70;15.00;;;8.10;99.90;;;;;;5069347;28;20450;-66
2022/04/23 03:35:35;;;;;;;18.00;15.47;;;8.00;99.90;;;;;;5068978;28;20455;-66
2022/04/23 03:38:04;;;;;;;15.80;14.20;;;8.00;99.90;;;;;;5071964;28;20443;-64
2022/04/23 03:40:31;;;;;;;17.70;15.83;;;7.90;99.90;;;;;;5073729;28;20446;-66
2022/04/23 03:42:57;;;;;;;16.93;15.03;;;7.90;99.90;;;;;;5073642;28;20482;-66
2022/04/23 03:45:24;;;;;;;20.63;17.17;;;7.80;99.90;;;;;;5073438;28;20473;-64
2022/04/23 03:47:51;;;;;;;19.30;17.27;;;7.80;99.90;;;;;;5073649;28;20447;-64
2022/04/23 03:50:20;;;;;;;19.83;17.60;;;7.70;99.90;;;;;;5073838;28;20450;-64
2022/04/23 03:52:46;;;;;;;21.20;16.40;;;7.70;99.90;;;;;;5073714;28;20454;-64
2022/04/23 03:55:15;;;;;;;22.13;18.37;;;7.50;99.90;;;;;;5073468;28;20470;-63
2022/04/23 03:57:46;;;;;;;18.43;16.30;;;7.40;99.90;;;;;;5073497;28;20451;-64
2022/04/23 04:00:15;;;;;;;19.17;17.13;;;7.30;99.90;;;;;;5073493;28;20478;-64
2022/04/23 04:02:42;;;;;;;20.37;18.17;;;7.20;99.90;;;;;;5073010;28;20475;-64
2022/04/23 04:05:10;;;;;;;18.50;16.57;;;7.20;99.90;;;;;;5072535;28;20842;-64
2022/04/23 04:07:42;;;;;;;18.87;16.83;;;7.10;99.90;;;;;;5073183;28;20798;-64
2022/04/23 04:10:10;;;;;;;17.90;15.50;;;7.10;99.90;;;;;;5073137;28;20443;-65
2022/04/23 04:12:38;;;;;;;20.67;16.70;;;7.00;99.90;;;;;;5073058;28;20527;-64
2022/04/23 04:15:06;;;;;;;17.43;15.50;;;7.00;99.90;;;;;;5072523;28;20470;-65
2022/04/23 04:17:34;;;;;;;22.03;17.57;;;7.00;99.90;;;;;;5072617;28;20462;-64
2022/04/23 04:20:01;;;;;;;19.10;16.80;;;6.90;99.90;;;;;;5072774;28;20814;-65
2022/04/23 04:22:28;;;;;;;19.43;17.33;;;6.90;99.90;;;;;;5072677;28;20461;-64
2022/04/23 04:24:54;;;;;;;19.63;17.50;;;7.00;99.90;;;;;;5072343;28;20630;-64
2022/04/23 04:27:21;;;;;;;19.30;17.17;;;7.00;99.90;;;;;;5072521;28;20451;-64
2022/04/23 04:29:50;;;;;;;21.90;17.60;;;7.10;99.90;;;;;;5072427;28;20486;-64
2022/04/23 04:32:16;;;;;;;20.07;16.27;;;7.30;99.90;;;;;;5072426;28;20938;-65
2022/04/23 04:34:43;;;;;;;18.90;16.90;;;7.50;99.90;;;;;;5072305;28;20554;-66
2022/04/23 04:37:12;;;;;;;16.63;14.83;;;7.70;99.90;;;;;;5072398;28;21035;-66
2022/04/23 04:39:41;;;;;;;20.03;15.27;;;7.90;99.90;;;;;;5072101;28;20937;-66
2022/04/23 04:42:09;;;;;;;16.17;14.47;;;8.10;99.90;;;;;;5072104;28;20449;-66
2022/04/23 04:44:36;;;;;;;16.27;14.50;;;8.20;99.90;;;;;;5071761;28;20490;-67
2022/04/23 04:47:06;;;;;;;17.43;14.90;;;8.30;99.90;;;;;;5072215;28;20443;-66
2022/04/23 04:49:33;;;;;;;17.00;14.93;;;8.50;99.90;;;;;;5070918;28;20529;-66
2022/04/23 04:52:00;;;;;;;15.40;13.70;;;8.60;99.90;;;;;;5072082;28;20494;-65
2022/04/23 04:54:27;;;;;;;14.20;12.77;;;8.80;99.90;;;;;;5071559;28;20473;-64
2022/04/23 04:56:56;;;;;;;15.00;13.40;;;8.80;99.90;;;;;;5071687;28;20830;-65
2022/04/23 04:59:23;;;;;;;15.10;13.70;;;8.90;99.90;;;;;;5071677;28;20458;-64
2022/04/23 05:01:50;;;;;;;15.87;14.20;;;8.90;99.90;;;;;;5071820;28;20936;-65
2022/04/23 05:04:19;;;;;;;15.27;13.67;;;9.10;99.90;;;;;;5071103;28;20483;-65
2022/04/23 05:06:46;;;;;;;14.23;12.80;;;9.30;99.90;;;;;;5071479;28;20957;-64
2022/04/23 05:09:13;;;;;;;14.73;13.33;;;9.50;99.90;;;;;;5071602;28;20466;-64
2022/04/23 05:11:40;;;;;;;14.00;12.60;;;9.70;99.90;;;;;;5071285;28;20541;-64
2022/04/23 05:14:07;;;;;;;14.13;12.70;;;9.80;99.90;;;;;;5071350;28;20815;-64
2022/04/23 05:16:34;;;;;;;16.23;12.67;;;9.90;99.90;;;;;;5071898;28;20451;-65
2022/04/23 05:19:00;;;;;;;13.53;12.13;;;10.10;99.90;;;;;;5071369;28;20450;-65
2022/04/23 05:21:29;;;;;;;13.50;11.77;;;10.10;99.90;;;;;;5071351;28;20465;-64
2022/04/23 05:23:55;;;;;;;12.83;11.53;;;10.00;99.90;;;;;;5070939;28;20497;-65
2022/04/23 05:26:22;;;;;;;14.17;12.20;;;10.10;99.90;;;;;;5071095;28;20538;-65
2022/04/23 05:28:49;;;;;;;13.00;11.70;;;10.00;99.90;;;;;;5071303;28;20543;-64
2022/04/23 05:31:16;;;;;;;13.80;12.40;;;10.10;99.90;;;;;;5071255;28;20466;-66
2022/04/23 05:33:42;;;;;;;14.87;13.33;;;9.90;99.90;;;;;;5071034;28;20470;-64
2022/04/23 05:36:09;;;;;;;13.57;12.13;;;9.80;99.90;;;;;;5070736;28;20530;-65
2022/04/23 05:38:37;;;;;;;16.00;13.87;;;9.80;99.90;;;;;;5070922;28;21138;-65
2022/04/23 05:41:05;;;;;;;14.00;12.60;;;10.00;99.90;;;;;;5071115;28;20450;-65
2022/04/23 05:43:32;;;;;;;13.90;11.90;;;9.90;99.90;;;;;;5072739;28;20864;-64
2022/04/23 05:46:00;;;;;;;14.47;12.97;;;10.00;99.90;;;;;;5071511;28;20554;-65
2022/04/23 05:48:27;;;;;;;15.23;13.70;;;10.20;99.90;;;;;;5072024;28;20819;-65
2022/04/23 05:50:53;;;;;;;16.57;14.20;;;10.30;99.90;;;;;;5071562;28;20448;-65
2022/04/23 05:53:20;;;;;;;12.37;11.03;;;10.30;99.90;;;;;;5072025;28;20447;-65
2022/04/23 05:55:49;;;;;;;13.13;11.67;;;10.50;99.90;;;;;;5071626;28;20449;-65
2022/04/23 05:58:16;;;;;;;13.97;12.50;;;10.80;99.90;;;;;;5070931;28;20991;-65
2022/04/23 06:00:43;;;;;;;12.20;11.00;;;10.90;99.90;;;;;;5070678;28;20489;-65
2022/04/23 06:03:11;;;;;;;12.13;10.93;;;11.00;99.90;;;;;;5070618;28;20447;-65
2022/04/23 06:05:37;;;;;;;11.23;10.03;;;11.00;99.90;;;;;;5070268;28;20889;-65
2022/04/23 06:08:05;;;;;;;12.60;11.43;;;11.20;99.90;;;;;;5070444;28;20826;-65
2022/04/23 06:10:32;;;;;;;12.03;10.80;;;11.40;99.90;;;;;;5070256;28;20849;-66
2022/04/23 06:13:00;;;;;;;11.43;10.33;;;11.60;99.90;;;;;;5070423;28;20443;-65
2022/04/23 06:15:26;;;;;;;12.73;10.77;;;11.70;99.90;;;;;;5069863;28;20477;-65
2022/04/23 06:17:53;;;;;;;11.37;10.20;;;11.90;99.90;;;;;;5070259;28;20447;-65
2022/04/23 06:20:20;;;;;;;13.13;10.10;;;12.00;99.90;;;;;;5069971;28;20454;-66
2022/04/23 06:22:47;;;;;;;11.20;10.17;;;12.20;99.90;;;;;;5070084;28;20957;-66
2022/04/23 06:25:14;;;;;;;10.50;9.47;;;12.30;99.90;;;;;;5069862;28;20566;-65
2022/04/23 06:27:41;;;;;;;11.83;9.90;;;12.30;99.90;;;;;;5070280;28;20516;-65
2022/04/23 06:30:10;;;;;;;11.27;9.87;;;12.40;99.90;;;;;;5070082;28;20443;-65
2022/04/23 06:32:37;;;;;;;10.70;9.70;;;12.50;99.90;;;;;;5070076;28;20472;-65
2022/04/23 06:35:05;;;;;;;10.67;9.57;;;12.40;99.90;;;;;;5069534;28;20467;-66
2022/04/23 06:37:37;;;;;;;10.67;9.57;;;12.30;99.90;;;;;;5070415;28;20443;-65
2022/04/23 06:40:05;;;;;;;10.47;9.47;;;12.30;99.90;;;;;;5069749;28;20453;-64
2022/04/23 06:42:31;;;;;;;10.10;9.10;;;12.50;99.90;;;;;;5069833;28;20479;-65
2022/04/23 06:44:58;;;;;;;10.80;9.80;;;12.60;99.90;;;;;;5069424;28;20487;-65
2022/04/23 06:47:26;;;;;;;9.13;8.23;;;12.80;99.90;;;;;;5069679;28;20458;-66
2022/04/23 06:49:54;;;;;;;9.27;8.37;;;12.90;99.90;;;;;;5069879;28;20442;-65
2022/04/23 06:52:20;;;;;;;9.20;7.83;;;13.00;99.90;;;;;;5070391;28;20457;-65
2022/04/23 06:54:47;;;;;;;10.03;8.40;;;13.00;99.90;;;;;;5069989;28;20463;-65
2022/04/23 06:57:14;;;;;;;8.63;7.83;;;13.00;99.90;;;;;;5069664;28;20933;-65
2022/04/23 06:59:41;;;;;;;10.40;9.43;;;13.00;99.90;;;;;;5069697;28;20461;-66
2022/04/23 07:02:07;;;;;;;9.80;8.80;;;13.00;99.90;;;;;;5069558;28;20451;-65
2022/04/23 07:04:36;;;;;;;8.77;7.97;;;13.00;99.90;;;;;;5069188;28;20993;-65
2022/04/23 07:07:04;;;;;;;9.30;8.23;;;13.10;99.90;;;;;;5069490;28;20530;-64
2022/04/23 07:09:31;;;;;;;7.93;7.13;;;13.00;99.90;;;;;;5069567;28;20475;-64
2022/04/23 07:11:59;;;;;;;10.37;7.67;;;13.10;99.90;;;;;;5070086;28;20458;-64
2022/04/23 07:14:26;;;;;;;8.00;7.20;;;13.20;99.90;;;;;;5073263;28;20473;-64
2022/04/23 07:16:53;;;;;;;7.33;6.63;;;13.20;99.90;;;;;;5073463;28;20824;-65
2022/04/23 07:19:20;;;;;;;7.13;6.43;;;13.30;99.90;;;;;;5073613;28;20500;-64
2022/04/23 07:21:48;;;;;;;8.43;7.50;;;13.70;99.90;;;;;;5073555;28;20554;-66
2022/04/23 07:24:16;;;;;;;8.90;8.10;;;13.80;99.90;;;;;;5073002;28;20929;-66
2022/04/23 07:26:43;;;;;;;9.13;6.80;;;13.90;99.90;;;;;;5073605;28;20439;-64
2022/04/23 07:29:11;;;;;;;8.03;7.23;;;14.00;99.90;;;;;;5073502;28;20450;-65
2022/04/23 07:31:39;;;;;;;7.20;6.50;;;14.00;99.90;;;;;;5073449;28;20443;-64
2022/04/23 07:39:37;;;;;;;6.70;6.10;;;14.40;99.90;;;;;;5073257;28;20422;-65
2022/04/23 07:42:05;;;;;;;6.83;6.13;;;14.50;99.90;;;;;;5073289;28;20951;-64
2022/04/23 07:44:32;;;;;;;6.40;5.80;;;14.50;99.90;;;;;;5072863;28;20491;-64
2022/04/23 07:46:59;;;;;;;7.03;6.10;;;14.50;99.90;;;;;;5073225;28;20442;-65
2022/04/23 07:49:26;;;;;;;6.07;5.47;;;14.60;99.90;;;;;;5073280;28;20536;-65
2022/04/23 07:51:54;;;;;;;7.13;5.70;;;14.70;99.90;;;;;;5073117;28;20532;-66
2022/04/23 07:54:21;;;;;;;6.53;5.63;;;14.70;99.90;;;;;;5072481;28;20462;-65
2022/04/23 07:56:48;;;;;;;5.80;5.23;;;15.00;99.90;;;;;;5073075;28;20443;-65
2022/04/23 07:59:15;;;;;;;6.70;6.00;;;15.30;99.90;;;;;;5072902;28;20443;-65
2022/04/23 08:01:42;;;;;;;6.65;6.05;;;15.40;99.90;;;;;;5072326;28;20444;-64
2022/04/23 08:04:09;;;;;;;5.93;5.33;;;15.20;99.90;;;;;;5072098;28;20737;-65
2022/04/23 08:06:36;;;;;;;6.07;5.47;;;15.00;99.90;;;;;;5072606;28;20455;-65
2022/04/23 08:09:04;;;;;;;6.77;5.83;;;15.10;99.90;;;;;;5072648;28;20439;-65
2022/04/23 08:11:31;;;;;;;5.73;5.13;;;15.10;99.90;;;;;;5072782;28;20455;-65
2022/04/23 08:13:58;;;;;;;6.60;5.90;;;15.10;99.90;;;;;;5072780;28;20860;-65
2022/04/23 08:16:27;;;;;;;6.93;6.20;;;15.40;99.90;;;;;;5072589;28;20459;-64
2022/04/23 08:18:55;;;;;;;6.80;5.90;;;15.60;99.90;;;;;;5072867;28;20447;-66
2022/04/23 08:21:22;;;;;;;6.20;5.60;;;15.70;99.90;;;;;;5072675;28;20455;-67
2022/04/23 08:23:48;;;;;;;7.27;6.37;;;16.00;99.90;;;;;;5072087;28;20989;-67
2022/04/23 08:26:17;;;;;;;7.43;6.27;;;16.40;99.90;;;;;;5072271;28;20451;-64
2022/04/23 08:31:28;;;;;;;6.90;6.20;;;16.70;99.90;;;;;;5072246;28;20951;-63
2022/04/23 08:34:01;;;;;;;7.50;6.60;;;16.90;99.90;;;;;;5072439;28;20466;-63
2022/04/23 08:36:35;;;;;;;7.23;6.40;;;17.00;99.90;;;;;;5072303;28;20447;-64
2022/04/23 08:39:04;;;;;;;6.70;6.00;;;16.90;99.90;;;;;;5072420;28;20446;-64
2022/04/23 08:41:34;;;;;;;7.60;5.93;;;17.00;99.90;;;;;;5072072;28;20516;-64
2022/04/23 08:44:05;;;;;;;8.67;5.97;;;17.00;99.90;;;;;;5071655;28;20482;-64
2022/04/23 08:46:33;;;;;;;6.67;6.07;;;17.10;99.90;;;;;;5072234;28;20550;-66
2022/04/23 08:49:09;;;;;;;10.53;6.70;;;17.30;99.90;;;;;;5072074;28;20451;-66
2022/04/23 08:51:38;;;;;;;9.47;6.80;;;17.50;99.90;;;;;;5071979;28;20664;-64
2022/04/23 08:54:07;;;;;;;7.37;6.67;;;17.60;99.90;;;;;;5071409;28;20912;-64
2022/04/23 08:56:36;;;;;;;7.60;6.87;;;17.40;99.90;;;;;;5071512;28;20447;-65
2022/04/23 08:59:03;;;;;;;8.30;6.93;;;17.20;99.90;;;;;;5071767;28;20455;-66
2022/04/23 09:01:32;;;;;;;6.77;6.07;;;17.10;99.90;;;;;;5071869;28;20454;-65
2022/04/23 09:03:59;;;;;;;7.83;7.03;;;17.30;99.90;;;;;;5071733;28;20473;-66
2022/04/23 09:06:37;;;;;;;6.90;5.67;;;17.30;99.90;;;;;;5071510;28;20870;-66
2022/04/23 09:09:15;;;;;;;7.00;6.33;;;17.50;99.90;;;;;;5071447;28;20450;-65
2022/04/23 09:11:51;;;;;;;6.67;5.97;;;17.40;99.90;;;;;;5071649;28;20462;-65
2022/04/23 09:14:26;;;;;;;7.43;6.63;;;17.60;99.90;;;;;;5071070;28;20458;-65
2022/04/23 09:25:16;;;;;;;6.20;5.40;;;17.30;99.90;;;;;;5070878;28;20568;-66
2022/04/23 09:27:44;;;;;;;7.10;6.40;;;17.10;99.90;;;;;;5070892;28;20447;-65
2022/04/23 09:30:13;;;;;;;6.63;5.93;;;16.80;99.90;;;;;;5071044;28;20461;-65
2022/04/23 09:32:57;;;;;;;7.33;5.23;;;16.60;99.90;;;;;;5071080;28;20451;-65
2022/04/23 09:35:25;;;;;;;7.37;6.27;;;16.30;99.90;;;;;;5069919;28;20460;-67
2022/04/23 09:40:36;;;;;;;6.93;5.60;;;16.00;99.90;;;;;;5070813;28;20484;-65
2022/04/23 09:43:06;;;;;;;6.03;5.43;;;15.80;99.90;;;;;;5070868;28;20443;-66
2022/04/23 09:45:34;;;;;;;5.57;4.90;;;15.80;99.90;;;;;;5070544;28;20479;-66
2022/04/23 09:48:15;;;;;;;5.70;5.10;;;16.00;99.90;;;;;;5070771;28;20454;-66
2022/04/23 09:50:45;;;;;;;5.30;4.73;;;15.90;99.90;;;;;;5070576;28;20447;-65
2022/04/23 09:53:12;;;;;;;7.00;5.70;;;15.80;99.90;;;;;;5070672;28;20505;-66
2022/04/23 09:55:40;;;;;;;9.07;6.70;;;15.70;99.90;;;;;;5070392;28;20443;-66
2022/04/23 09:58:11;;;;;;;6.20;5.00;;;15.80;99.90;;;;;;5070768;28;20470;-65
2022/04/23 10:00:40;;;;;;;7.60;5.20;;;16.10;99.90;;;;;;5070720;28;20451;-64
2022/04/23 10:03:08;;;;;;;6.03;5.43;;;16.10;99.90;;;;;;5070322;28;20933;-66
2022/04/23 10:05:38;;;;;;;6.10;5.50;;;16.30;99.90;;;;;;5069873;28;20487;-65
2022/04/23 10:08:10;;;;;;;6.10;5.50;;;16.20;99.90;;;;;;5070319;28;20454;-66
2022/04/23 10:10:43;;;;;;;5.70;5.00;;;15.90;99.90;;;;;;5070487;28;20455;-66
2022/04/23 10:13:12;;;;;;;5.50;4.77;;;15.90;99.90;;;;;;5070198;28;20451;-66
2022/04/23 10:15:41;;;;;;;5.50;5.00;;;16.10;99.90;;;;;;5069909;28;20580;-65
2022/04/23 10:18:10;;;;;;;6.50;5.57;;;16.20;99.90;;;;;;5070507;28;20821;-66
2022/04/23 10:20:40;;;;;;;6.33;5.53;;;16.40;99.90;;;;;;5070262;28;21020;-66
2022/04/23 10:23:14;;;;;;;6.27;5.10;;;16.80;99.90;;;;;;5070686;28;20455;-63
2022/04/23 10:25:49;;;;;;;5.13;4.63;;;17.00;99.90;;;;;;5070149;28;21007;-65
2022/04/23 10:28:19;;;;;;;7.77;6.17;;;17.40;99.90;;;;;;5070360;28;20454;-66
2022/04/23 10:30:47;;;;;;;7.17;5.90;;;17.50;99.90;;;;;;5070398;28;20447;-66
2022/04/23 10:33:25;;;;;;;5.80;5.20;;;17.40;99.60;;;;;;5070171;28;20457;-65
2022/04/23 10:36:09;;;;;;;9.23;6.60;;;17.30;99.60;;;;;;5070045;28;20447;-66
2022/04/23 10:38:42;;;;;;;6.60;6.00;;;17.30;99.30;;;;;;5068996;28;20455;-66
2022/04/23 10:41:11;;;;;;;6.63;5.63;;;17.30;99.90;;;;;;5070269;28;20808;-66
2022/04/23 10:43:47;;;;;;;6.37;5.77;;;17.40;99.90;;;;;;5070007;28;20474;-66
2022/04/23 10:46:45;;;;;;;6.80;6.10;;;17.50;99.10;;;;;;5069396;28;20996;-65
2022/04/23 10:49:14;;;;;;;8.40;6.57;;;17.50;99.90;;;;;;5069633;28;20444;-66
2022/04/23 10:51:48;;;;;;;8.07;6.10;;;17.70;99.90;;;;;;5069566;28;20443;-68
2022/04/23 10:54:18;;;;;;;7.47;6.77;;;18.00;99.80;;;;;;5069410;28;20467;-65
2022/04/23 10:56:49;;;;;;;6.40;5.30;;;17.60;99.50;;;;;;5069792;28;20553;-66
2022/04/23 10:59:37;;;;;;;6.40;5.40;;;17.60;99.30;;;;;;5069681;28;20533;-66
2022/04/23 11:02:06;;;;;;;8.43;6.47;;;17.50;99.10;;;;;;5069748;28;20545;-66
2022/04/23 11:04:34;;;;;;;6.77;6.07;;;17.50;99.60;;;;;;5069104;28;20467;-67
2022/04/23 11:12:37;;;;;;;6.50;5.90;;;17.70;99.90;;;;;;5069738;28;20936;-66
2022/04/23 11:15:15;;;;;;;9.93;6.33;;;17.80;99.40;;;;;;5069353;28;20470;-66
2022/04/23 11:18:03;;;;;;;7.33;6.63;;;17.50;99.80;;;;;;5069585;28;20981;-65
2022/04/23 11:20:37;;;;;;;8.13;7.33;;;17.50;99.90;;;;;;5069559;28;20430;-66
2022/04/23 11:23:06;;;;;;;6.73;6.13;;;17.70;99.90;;;;;;5069602;28;20454;-65
2022/04/23 11:25:33;;;;;;;8.37;7.53;;;17.70;99.80;;;;;;5068977;28;20977;-66
2022/04/23 11:28:21;;;;;;;11.63;7.70;;;17.40;99.20;;;;;;5069414;28;20447;-66
2022/04/23 11:30:51;;;;;;;11.33;7.90;;;17.50;99.90;;;;;;5069331;28;20657;-66
2022/04/23 11:33:18;;;;;;;8.63;7.27;;;17.70;99.90;;;;;;5069606;28;20447;-65
2022/04/23 11:35:45;;;;;;;9.73;6.90;;;17.80;99.30;;;;;;5069162;28;20442;-66
2022/04/23 11:38:23;;;;;;;8.50;6.77;;;17.80;99.90;;;;;;5069467;28;20827;-65
2022/04/23 11:40:50;;;;;;;8.77;7.00;;;18.20;98.70;;;;;;5069356;28;20446;-66
2022/04/23 11:43:31;;;;;;;7.80;6.77;;;18.20;99.50;;;;;;5069163;28;20447;-65
2022/04/23 11:46:03;;;;;;;8.20;7.40;;;18.20;99.40;;;;;;5069031;28;20501;-65
2022/04/23 11:48:44;;;;;;;7.00;6.30;;;18.40;99.60;;;;;;5069440;28;20447;-65
2022/04/23 11:51:12;;;;;;;7.80;7.00;;;18.40;98.60;;;;;;5069201;28;20450;-66
2022/04/23 11:53:58;;;;;;;8.63;7.00;;;18.40;98.80;;;;;;5068955;28;20467;-65
2022/04/23 11:56:32;;;;;;;8.63;7.73;;;18.20;99.00;;;;;;5069069;28;20447;-65
2022/04/23 11:59:03;;;;;;;7.83;7.03;;;18.20;98.30;;;;;;5071434;28;20446;-66
2022/04/23 12:01:32;;;;;;;8.03;6.67;;;18.50;98.60;;;;;;5072891;28;20443;-65
2022/04/23 12:04:00;;;;;;;7.53;6.80;;;18.50;97.90;;;;;;5072489;28;20549;-65
2022/04/23 12:06:28;;;;;;;8.47;7.67;;;18.80;99.20;;;;;;5072903;28;20493;-65
2022/04/23 12:09:06;;;;;;;9.50;7.17;;;18.60;97.50;;;;;;5072832;28;20443;-66
2022/04/23 12:11:33;;;;;;;29.80;10.73;;;18.70;98.20;;;;;;5072735;28;20482;-65
2022/04/23 12:14:02;;;;;;;7.97;7.20;;;18.90;97.60;;;;;;5072696;28;20976;-66
2022/04/23 12:16:38;;;;;;;8.10;6.70;;;19.20;97.40;;;;;;5072518;28;20880;-65
2022/04/23 12:19:07;;;;;;;8.33;6.70;;;19.40;97.30;;;;;;5072772;28;20529;-65
2022/04/23 12:21:36;;;;;;;8.03;7.23;;;19.60;97.40;;;;;;5072491;28;20451;-66
2022/04/23 12:24:04;;;;;;;9.27;7.53;;;19.90;96.50;;;;;;5072238;28;20470;-64
2022/04/23 12:26:33;;;;;;;10.20;6.77;;;20.10;95.80;;;;;;5072374;28;20487;-66
2022/04/23 12:43:26;;;;;;;7.43;6.73;;;19.20;96.80;;;;;;5072913;28;20907;-65
2022/04/23 12:46:07;;;;;;;8.47;7.30;;;19.00;97.10;;;;;;5071832;28;20909;-65
2022/04/23 12:49:03;;;;;;;8.70;7.73;;;19.10;96.10;;;;;;5072316;28;20443;-69
2022/04/23 12:51:30;;;;;;;8.63;7.93;;;19.20;96.80;;;;;;5072207;28;20538;-67
2022/04/23 12:53:57;;;;;;;8.33;7.53;;;19.20;96.40;;;;;;5071760;28;21002;-66
2022/04/23 12:56:34;;;;;;;9.10;8.20;;;19.00;96.80;;;;;;5071757;28;20446;-66
2022/04/23 12:59:03;;;;;;;8.97;8.07;;;18.70;97.00;;;;;;5072040;28;20480;-65
2022/04/23 13:01:30;;;;;;;9.88;8.88;;;18.50;97.30;;;;;;5071499;28;20565;-67
2022/04/23 13:04:02;;;;;;;9.23;8.27;;;18.60;97.10;;;;;;5071572;28;20228;-65
2022/04/23 13:09:15;;;;;;;10.50;9.40;;;18.70;97.30;;;;;;5036691;28;20510;-65
2022/04/23 13:11:42;;;;;;;9.70;8.80;;;18.50;98.10;;;;;;5071367;28;20446;-66
2022/04/23 13:14:09;;;;;;;9.47;8.57;;;18.50;97.50;;;;;;5071072;28;20459;-65
2022/04/23 13:16:38;;;;;;;8.93;8.13;;;18.30;96.80;;;;;;5071369;28;20846;-66
2022/04/23 13:19:06;;;;;;;8.93;8.17;;;18.00;97.30;;;;;;5071188;28;20458;-65
2022/04/23 13:21:34;;;;;;;8.97;8.07;;;17.80;98.60;;;;;;5071389;28;20451;-65
2022/04/23 13:24:02;;;;;;;10.03;9.00;;;18.10;99.30;;;;;;5071257;28;20498;-67
2022/04/23 13:26:30;;;;;;;10.80;9.90;;;18.20;97.50;;;;;;5071164;28;21202;-66
2022/04/23 13:28:57;;;;;;;10.17;9.17;;;18.00;99.00;;;;;;5071207;28;20454;-65
2022/04/23 13:31:24;;;;;;;9.73;8.83;;;17.80;98.10;;;;;;5071154;28;20538;-65